sensor_id;sensor_type;location;lat;lon;timestamp;pressure;altitude;pressure_sealevel;temperature;humidity
20228;BME280;12195;55.790;37.572;2023-05-02T00:00:54;100266.17;;;4.33;68.57
20228;BME280;12195;55.790;37.572;2023-05-02T00:03:26;100263.52;;;4.36;68.46
20228;BME280;12195;55.790;37.572;2023-05-02T00:06:02;100273.05;;;4.36;68.36
20228;BME280;12195;55.790;37.572;2023-05-02T00:08:34;100276.55;;;4.35;68.32
20228;BME280;12195;55.790;37.572;2023-05-02T00:11:06;100273.02;;;4.37;68.16
20228;BME280;12195;55.790;37.572;2023-05-02T00:13:38;100272.13;;;4.38;68.01
20228;BME280;12195;55.790;37.572;2023-05-02T00:16:11;100267.10;;;4.31;68.21
20228;BME280;12195;55.790;37.572;2023-05-02T00:18:43;100278.50;;;4.24;68.39
20228;BME280;12195;55.790;37.572;2023-05-02T00:21:15;100277.80;;;4.16;68.67
20228;BME280;12195;55.790;37.572;2023-05-02T00:23:47;100288.39;;;4.05;69.12
20228;BME280;12195;55.790;37.572;2023-05-02T00:26:21;100300.65;;;3.99;69.45
20228;BME280;12195;55.790;37.572;2023-05-02T00:28:53;100293.59;;;4.05;69.12
20228;BME280;12195;55.790;37.572;2023-05-02T00:31:27;100299.12;;;3.89;69.64
20228;BME280;12195;55.790;37.572;2023-05-02T00:33:59;100302.55;;;3.89;69.81
20228;BME280;12195;55.790;37.572;2023-05-02T00:36:31;100305.25;;;3.85;70.17
20228;BME280;12195;55.790;37.572;2023-05-02T00:39:03;100301.81;;;3.83;70.34
20228;BME280;12195;55.790;37.572;2023-05-02T00:41:36;100310.54;;;3.79;70.57
20228;BME280;12195;55.790;37.572;2023-05-02T00:44:08;100316.60;;;3.79;70.72
20228;BME280;12195;55.790;37.572;2023-05-02T00:46:40;100317.45;;;3.81;70.79
20228;BME280;12195;55.790;37.572;2023-05-02T00:49:12;100308.84;;;3.78;70.82
20228;BME280;12195;55.790;37.572;2023-05-02T00:51:45;100320.92;;;3.79;70.89
20228;BME280;12195;55.790;37.572;2023-05-02T00:54:17;100325.31;;;3.77;70.96
20228;BME280;12195;55.790;37.572;2023-05-02T00:56:49;100327.03;;;3.76;71.05
20228;BME280;12195;55.790;37.572;2023-05-02T00:59:21;100329.66;;;3.75;71.10
20228;BME280;12195;55.790;37.572;2023-05-02T01:02:17;100334.84;;;3.75;71.09
20228;BME280;12195;55.790;37.572;2023-05-02T01:05:04;100326.98;;;3.79;70.93
20228;BME280;12195;55.790;37.572;2023-05-02T01:10:46;100337.31;;;3.84;70.77
20228;BME280;12195;55.790;37.572;2023-05-02T01:13:25;100342.42;;;3.87;70.42
20228;BME280;12195;55.790;37.572;2023-05-02T01:15:58;100340.62;;;3.92;70.17
20228;BME280;12195;55.790;37.572;2023-05-02T01:18:34;100354.50;;;3.89;70.42
20228;BME280;12195;55.790;37.572;2023-05-02T01:21:08;100353.56;;;3.93;70.06
20228;BME280;12195;55.790;37.572;2023-05-02T01:26:44;100360.50;;;3.94;69.93
20228;BME280;12195;55.790;37.572;2023-05-02T01:29:11;100360.59;;;3.88;70.25
20228;BME280;12195;55.790;37.572;2023-05-02T01:31:47;100357.16;;;3.88;70.28
20228;BME280;12195;55.790;37.572;2023-05-02T01:34:19;100359.80;;;3.85;70.20
20228;BME280;12195;55.790;37.572;2023-05-02T01:36:54;100375.46;;;3.79;70.75
20228;BME280;12195;55.790;37.572;2023-05-02T01:39:28;100364.33;;;3.72;70.93
20228;BME280;12195;55.790;37.572;2023-05-02T01:42:01;100373.88;;;3.72;71.19
20228;BME280;12195;55.790;37.572;2023-05-02T01:44:34;100379.15;;;3.66;71.33
20228;BME280;12195;55.790;37.572;2023-05-02T01:47:08;100378.35;;;3.62;71.54
20228;BME280;12195;55.790;37.572;2023-05-02T01:49:41;100387.94;;;3.59;71.89
20228;BME280;12195;55.790;37.572;2023-05-02T01:52:14;100389.69;;;3.57;72.20
20228;BME280;12195;55.790;37.572;2023-05-02T01:54:47;100390.55;;;3.57;72.25
20228;BME280;12195;55.790;37.572;2023-05-02T01:57:21;100390.55;;;3.57;72.45
20228;BME280;12195;55.790;37.572;2023-05-02T01:59:55;100397.44;;;3.60;72.49
20228;BME280;12195;55.790;37.572;2023-05-02T02:02:30;100396.48;;;3.65;72.27
20228;BME280;12195;55.790;37.572;2023-05-02T02:05:03;100400.81;;;3.65;72.45
20228;BME280;12195;55.790;37.572;2023-05-02T02:07:38;100403.41;;;3.65;72.25
20228;BME280;12195;55.790;37.572;2023-05-02T02:10:10;100405.11;;;3.66;72.45
20228;BME280;12195;55.790;37.572;2023-05-02T02:13:05;100416.34;;;3.68;72.54
20228;BME280;12195;55.790;37.572;2023-05-02T02:15:28;100420.63;;;3.70;72.68
20228;BME280;12195;55.790;37.572;2023-05-02T02:18:10;100417.19;;;3.68;72.87
20228;BME280;12195;55.790;37.572;2023-05-02T02:20:42;100417.26;;;3.65;73.06
20228;BME280;12195;55.790;37.572;2023-05-02T02:23:15;100423.28;;;3.66;73.26
20228;BME280;12195;55.790;37.572;2023-05-02T02:25:49;100430.15;;;3.70;73.42
20228;BME280;12195;55.790;37.572;2023-05-02T02:28:22;100436.09;;;3.76;73.59
20228;BME280;12195;55.790;37.572;2023-05-02T02:30:54;100438.59;;;3.84;73.42
20228;BME280;12195;55.790;37.572;2023-05-02T02:33:29;100440.19;;;3.91;73.28
20228;BME280;12195;55.790;37.572;2023-05-02T02:36:11;100452.20;;;3.98;73.30
20228;BME280;12195;55.790;37.572;2023-05-02T02:38:49;100460.58;;;4.15;73.11
20228;BME280;12195;55.790;37.572;2023-05-02T02:41:26;100452.80;;;4.13;72.74
20228;BME280;12195;55.790;37.572;2023-05-02T02:44:05;100451.83;;;4.20;72.31
20228;BME280;12195;55.790;37.572;2023-05-02T02:52:21;100453.13;;;4.44;71.47
20228;BME280;12195;55.790;37.572;2023-05-02T02:55:06;100459.08;;;4.50;71.37
20228;BME280;12195;55.790;37.572;2023-05-02T02:57:40;100458.98;;;4.56;71.16
20228;BME280;12195;55.790;37.572;2023-05-02T03:00:19;100469.25;;;4.62;70.85
20228;BME280;12195;55.790;37.572;2023-05-02T03:02:53;100468.23;;;4.71;70.55
20228;BME280;12195;55.790;37.572;2023-05-02T03:05:27;100470.66;;;4.80;70.65
20228;BME280;12195;55.790;37.572;2023-05-02T03:08:00;100469.64;;;4.88;70.08
20228;BME280;12195;55.790;37.572;2023-05-02T03:10:32;100467.74;;;4.96;69.63
20228;BME280;12195;55.790;37.572;2023-05-02T03:13:04;100470.18;;;5.04;69.54
20228;BME280;12195;55.790;37.572;2023-05-02T03:18:14;100460.30;;;5.19;69.42
20228;BME280;12195;55.790;37.572;2023-05-02T03:20:46;100473.06;;;5.31;68.87
20228;BME280;12195;55.790;37.572;2023-05-02T03:23:19;100469.39;;;5.41;68.62
20228;BME280;12195;55.790;37.572;2023-05-02T03:25:51;100467.41;;;5.51;68.27
20228;BME280;12195;55.790;37.572;2023-05-02T03:28:23;100473.25;;;5.62;67.93
20228;BME280;12195;55.790;37.572;2023-05-02T03:30:56;100479.06;;;5.74;67.51
20228;BME280;12195;55.790;37.572;2023-05-02T03:33:29;100486.66;;;5.85;66.83
20228;BME280;12195;55.790;37.572;2023-05-02T03:36:01;100488.14;;;5.95;66.08
20228;BME280;12195;55.790;37.572;2023-05-02T03:38:33;100498.28;;;6.07;65.56
20228;BME280;12195;55.790;37.572;2023-05-02T03:41:06;100505.88;;;6.16;65.09
20228;BME280;12195;55.790;37.572;2023-05-02T03:43:38;100503.95;;;6.24;64.68
20228;BME280;12195;55.790;37.572;2023-05-02T03:46:10;100510.77;;;6.30;64.39
20228;BME280;12195;55.790;37.572;2023-05-02T03:48:43;100500.20;;;6.36;64.23
20228;BME280;12195;55.790;37.572;2023-05-02T03:51:16;100509.56;;;6.43;63.82
20228;BME280;12195;55.790;37.572;2023-05-02T03:53:50;100505.05;;;6.49;63.64
20228;BME280;12195;55.790;37.572;2023-05-02T03:56:22;100516.97;;;6.59;63.89
20228;BME280;12195;55.790;37.572;2023-05-02T03:58:56;100514.92;;;6.70;63.59
20228;BME280;12195;55.790;37.572;2023-05-02T04:01:29;100515.47;;;6.83;63.16
20228;BME280;12195;55.790;37.572;2023-05-02T04:04:03;100516.89;;;6.94;62.96
20228;BME280;12195;55.790;37.572;2023-05-02T04:06:37;100519.13;;;7.08;62.56
20228;BME280;12195;55.790;37.572;2023-05-02T04:09:11;100517.01;;;7.22;62.01
20228;BME280;12195;55.790;37.572;2023-05-02T04:11:44;100519.24;;;7.34;61.43
20228;BME280;12195;55.790;37.572;2023-05-02T04:14:17;100524.95;;;7.48;60.86
20228;BME280;12195;55.790;37.572;2023-05-02T04:16:51;100525.50;;;7.59;60.32
20228;BME280;12195;55.790;37.572;2023-05-02T04:19:28;100532.07;;;7.72;59.94
20228;BME280;12195;55.790;37.572;2023-05-02T04:22:01;100535.20;;;7.83;59.26
20228;BME280;12195;55.790;37.572;2023-05-02T04:24:36;100529.64;;;7.93;58.60
20228;BME280;12195;55.790;37.572;2023-05-02T04:27:10;100524.15;;;8.02;58.17
20228;BME280;12195;55.790;37.572;2023-05-02T04:29:48;100533.45;;;8.11;57.90
20228;BME280;12195;55.790;37.572;2023-05-02T04:32:21;100535.84;;;8.18;57.81
20228;BME280;12195;55.790;37.572;2023-05-02T04:34:54;100537.37;;;8.25;57.88
20228;BME280;12195;55.790;37.572;2023-05-02T04:37:26;100539.77;;;8.33;57.14
20228;BME280;12195;55.790;37.572;2023-05-02T04:40:00;100536.98;;;8.37;56.93
20228;BME280;12195;55.790;37.572;2023-05-02T04:42:33;100550.67;;;8.45;56.74
20228;BME280;12195;55.790;37.572;2023-05-02T04:45:13;100546.95;;;8.52;56.60
20228;BME280;12195;55.790;37.572;2023-05-02T04:47:47;100549.31;;;8.60;56.02
20228;BME280;12195;55.790;37.572;2023-05-02T04:50:19;100549.87;;;8.69;55.90
20228;BME280;12195;55.790;37.572;2023-05-02T04:52:52;100552.22;;;8.77;55.48
20228;BME280;12195;55.790;37.572;2023-05-02T04:55:24;100559.93;;;8.81;54.65
20228;BME280;12195;55.790;37.572;2023-05-02T04:57:57;100567.42;;;8.92;54.93
20228;BME280;12195;55.790;37.572;2023-05-02T05:00:30;100553.21;;;8.99;54.63
20228;BME280;12195;55.790;37.572;2023-05-02T05:03:03;100555.50;;;9.08;54.37
20228;BME280;12195;55.790;37.572;2023-05-02T05:05:38;100557.70;;;9.20;54.50
20228;BME280;12195;55.790;37.572;2023-05-02T05:08:12;100558.33;;;9.26;53.42
20228;BME280;12195;55.790;37.572;2023-05-02T05:10:45;100561.44;;;9.37;53.88
20228;BME280;12195;55.790;37.572;2023-05-02T05:13:17;100566.34;;;9.46;53.45
20228;BME280;12195;55.790;37.572;2023-05-02T05:15:51;100565.08;;;9.56;53.00
20228;BME280;12195;55.790;37.572;2023-05-02T05:18:25;100555.92;;;9.68;52.53
20228;BME280;12195;55.790;37.572;2023-05-02T05:20:57;100558.14;;;9.78;52.19
20228;BME280;12195;55.790;37.572;2023-05-02T05:23:30;100563.14;;;9.84;51.75
20228;BME280;12195;55.790;37.572;2023-05-02T05:26:19;100571.57;;;9.92;50.67
20228;BME280;12195;55.790;37.572;2023-05-02T05:28:48;100561.70;;;9.99;50.03
20228;BME280;12195;55.790;37.572;2023-05-02T05:31:22;100565.78;;;10.07;49.15
20228;BME280;12195;55.790;37.572;2023-05-02T05:33:56;100565.52;;;10.13;48.94
20228;BME280;12195;55.790;37.572;2023-05-02T05:36:29;100563.45;;;10.21;49.55
20228;BME280;12195;55.790;37.572;2023-05-02T05:39:03;100560.52;;;10.29;48.94
20228;BME280;12195;55.790;37.572;2023-05-02T05:41:37;100564.56;;;10.37;48.90
20228;BME280;12195;55.790;37.572;2023-05-02T05:44:11;100565.88;;;10.47;49.85
20228;BME280;12195;55.790;37.572;2023-05-02T05:46:43;100569.05;;;10.55;48.65
20228;BME280;12195;55.790;37.572;2023-05-02T05:49:16;100566.08;;;10.64;48.72
20228;BME280;12195;55.790;37.572;2023-05-02T05:51:49;100556.17;;;10.71;48.23
20228;BME280;12195;55.790;37.572;2023-05-02T05:54:21;100560.23;;;10.78;47.63
20228;BME280;12195;55.790;37.572;2023-05-02T05:56:55;100554.61;;;10.87;47.14
20228;BME280;12195;55.790;37.572;2023-05-02T05:59:27;100558.42;;;11.00;47.19
20228;BME280;12195;55.790;37.572;2023-05-02T06:01:59;100561.52;;;11.10;45.09
20228;BME280;12195;55.790;37.572;2023-05-02T06:04:31;100564.52;;;11.21;44.25
20228;BME280;12195;55.790;37.572;2023-05-02T06:07:05;100561.41;;;11.31;43.75
20228;BME280;12195;55.790;37.572;2023-05-02T06:09:37;100558.05;;;11.48;43.63
20228;BME280;12195;55.790;37.572;2023-05-02T06:12:09;100561.95;;;11.78;42.03
20228;BME280;12195;55.790;37.572;2023-05-02T06:14:43;100564.34;;;12.38;41.00
20228;BME280;12195;55.790;37.572;2023-05-02T06:17:16;100556.09;;;13.47;37.25
20228;BME280;12195;55.790;37.572;2023-05-02T06:19:47;100557.47;;;14.02;35.20
20228;BME280;12195;55.790;37.572;2023-05-02T06:22:20;100560.10;;;14.49;34.24
20228;BME280;12195;55.790;37.572;2023-05-02T06:24:52;100553.91;;;15.23;33.81
20228;BME280;12195;55.790;37.572;2023-05-02T06:27:25;100554.17;;;15.76;32.21
20228;BME280;12195;55.790;37.572;2023-05-02T06:29:57;100553.13;;;16.33;31.85
20228;BME280;12195;55.790;37.572;2023-05-02T06:32:31;100551.71;;;17.32;29.84
20228;BME280;12195;55.790;37.572;2023-05-02T06:35:04;100547.34;;;18.06;28.96
20228;BME280;12195;55.790;37.572;2023-05-02T06:37:36;100617.06;;;18.35;28.08
20228;BME280;12195;55.790;37.572;2023-05-02T06:40:09;100630.72;;;17.93;28.96
20228;BME280;12195;55.790;37.572;2023-05-02T06:42:41;100556.77;;;17.49;29.09
20228;BME280;12195;55.790;37.572;2023-05-02T06:45:14;100555.17;;;16.95;30.41
20228;BME280;12195;55.790;37.572;2023-05-02T06:47:46;100557.50;;;16.34;30.39
20228;BME280;12195;55.790;37.572;2023-05-02T06:50:19;100558.17;;;15.69;31.60
20228;BME280;12195;55.790;37.572;2023-05-02T06:52:51;100554.47;;;15.14;31.25
20228;BME280;12195;55.790;37.572;2023-05-02T06:55:24;100554.73;;;14.66;31.37
20228;BME280;12195;55.790;37.572;2023-05-02T06:57:56;100559.27;;;14.33;32.45
20228;BME280;12195;55.790;37.572;2023-05-02T07:00:29;100557.55;;;14.01;32.82
20228;BME280;12195;55.790;37.572;2023-05-02T07:03:01;100564.16;;;13.77;33.63
20228;BME280;12195;55.790;37.572;2023-05-02T07:05:35;100567.61;;;13.62;33.31
20228;BME280;12195;55.790;37.572;2023-05-02T07:08:07;100565.77;;;13.47;33.15
20228;BME280;12195;55.790;37.572;2023-05-02T07:10:40;100568.98;;;13.36;34.27
20228;BME280;12195;55.790;37.572;2023-05-02T07:13:12;100566.36;;;13.19;33.26
20228;BME280;12195;55.790;37.572;2023-05-02T07:15:45;100571.10;;;13.13;33.51
20228;BME280;12195;55.790;37.572;2023-05-02T07:18:17;100573.60;;;12.99;33.25
20228;BME280;12195;55.790;37.572;2023-05-02T07:20:49;100565.95;;;12.93;33.82
20228;BME280;12195;55.790;37.572;2023-05-02T07:23:22;100582.85;;;12.89;33.62
20228;BME280;12195;55.790;37.572;2023-05-02T07:25:54;100577.44;;;12.92;33.58
20228;BME280;12195;55.790;37.572;2023-05-02T07:28:27;100576.03;;;12.85;32.40
20228;BME280;12195;55.790;37.572;2023-05-02T07:30:59;100573.25;;;12.88;32.80
20228;BME280;12195;55.790;37.572;2023-05-02T07:33:31;100579.45;;;12.87;33.46
20228;BME280;12195;55.790;37.572;2023-05-02T07:36:04;100575.02;;;12.87;33.27
20228;BME280;12195;55.790;37.572;2023-05-02T07:38:36;100575.73;;;12.91;32.56
20228;BME280;12195;55.790;37.572;2023-05-02T07:41:08;100571.69;;;12.84;34.01
20228;BME280;12195;55.790;37.572;2023-05-02T07:43:41;100581.16;;;12.88;34.20
20228;BME280;12195;55.790;37.572;2023-05-02T07:46:13;100577.91;;;12.83;33.44
20228;BME280;12195;55.790;37.572;2023-05-02T07:48:45;100576.28;;;12.80;33.87
20228;BME280;12195;55.790;37.572;2023-05-02T07:51:18;100573.56;;;12.82;34.21
20228;BME280;12195;55.790;37.572;2023-05-02T07:53:51;100574.58;;;12.79;34.41
20228;BME280;12195;55.790;37.572;2023-05-02T07:56:25;100581.08;;;12.72;34.33
20228;BME280;12195;55.790;37.572;2023-05-02T07:58:58;100570.53;;;12.72;34.59
20228;BME280;12195;55.790;37.572;2023-05-02T08:01:30;100577.11;;;12.81;34.48
20228;BME280;12195;55.790;37.572;2023-05-02T08:04:02;100574.19;;;12.87;34.55
20228;BME280;12195;55.790;37.572;2023-05-02T08:06:35;100575.87;;;12.88;34.83
20228;BME280;12195;55.790;37.572;2023-05-02T08:09:08;100566.02;;;12.91;34.92
20228;BME280;12195;55.790;37.572;2023-05-02T08:11:40;100574.55;;;12.98;34.83
20228;BME280;12195;55.790;37.572;2023-05-02T08:14:14;100567.25;;;13.03;34.91
20228;BME280;12195;55.790;37.572;2023-05-02T08:16:46;100563.74;;;13.02;34.61
20228;BME280;12195;55.790;37.572;2023-05-02T08:19:19;100559.16;;;13.06;35.97
20228;BME280;12195;55.790;37.572;2023-05-02T08:21:53;100556.30;;;13.10;34.20
20228;BME280;12195;55.790;37.572;2023-05-02T08:24:25;100564.59;;;13.20;34.76
20228;BME280;12195;55.790;37.572;2023-05-02T08:26:57;100569.69;;;13.40;36.05
20228;BME280;12195;55.790;37.572;2023-05-02T08:29:30;100557.89;;;13.30;33.41
20228;BME280;12195;55.790;37.572;2023-05-02T08:32:02;100558.42;;;13.36;34.38
20228;BME280;12195;55.790;37.572;2023-05-02T08:34:34;100549.19;;;13.45;34.34
20228;BME280;12195;55.790;37.572;2023-05-02T08:37:08;100556.77;;;13.51;33.34
20228;BME280;12195;55.790;37.572;2023-05-02T08:39:40;100555.86;;;13.52;33.21
20228;BME280;12195;55.790;37.572;2023-05-02T08:42:12;100557.55;;;13.53;32.23
20228;BME280;12195;55.790;37.572;2023-05-02T08:44:45;100550.50;;;13.53;32.10
20228;BME280;12195;55.790;37.572;2023-05-02T08:47:18;100550.58;;;13.52;31.99
20228;BME280;12195;55.790;37.572;2023-05-02T08:49:53;100548.09;;;13.49;32.92
20228;BME280;12195;55.790;37.572;2023-05-02T08:52:28;100551.48;;;13.51;33.03
20228;BME280;12195;55.790;37.572;2023-05-02T08:55:02;100539.16;;;13.51;32.26
20228;BME280;12195;55.790;37.572;2023-05-02T08:57:35;100538.92;;;13.56;31.92
20228;BME280;12195;55.790;37.572;2023-05-02T09:00:07;100531.92;;;13.55;32.00
20228;BME280;12195;55.790;37.572;2023-05-02T09:05:24;100531.11;;;13.70;31.77
20228;BME280;12195;55.790;37.572;2023-05-02T09:07:56;100538.79;;;13.74;31.51
20228;BME280;12195;55.790;37.572;2023-05-02T09:10:28;100526.42;;;13.75;30.90
20228;BME280;12195;55.790;37.572;2023-05-02T09:16:06;100529.14;;;13.73;31.68
20228;BME280;12195;55.790;37.572;2023-05-02T09:18:42;100529.42;;;13.84;32.10
20228;BME280;12195;55.790;37.572;2023-05-02T09:21:17;100527.21;;;13.92;31.77
20228;BME280;12195;55.790;37.572;2023-05-02T09:23:57;100526.97;;;13.97;31.59
20228;BME280;12195;55.790;37.572;2023-05-02T09:26:30;100532.05;;;14.00;31.20
20228;BME280;12195;55.790;37.572;2023-05-02T09:29:04;100527.72;;;13.99;31.46
20228;BME280;12195;55.790;37.572;2023-05-02T09:31:36;100526.02;;;13.98;31.80
20228;BME280;12195;55.790;37.572;2023-05-02T09:34:12;100521.84;;;13.94;31.33
20228;BME280;12195;55.790;37.572;2023-05-02T09:36:47;100523.47;;;13.96;31.18
20228;BME280;12195;55.790;37.572;2023-05-02T09:39:27;100519.80;;;13.99;31.31
20228;BME280;12195;55.790;37.572;2023-05-02T09:42:02;100513.57;;;14.00;30.85
20228;BME280;12195;55.790;37.572;2023-05-02T09:44:37;100509.82;;;14.04;30.59
20228;BME280;12195;55.790;37.572;2023-05-02T09:47:10;100508.39;;;14.14;31.66
20228;BME280;12195;55.790;37.572;2023-05-02T09:49:45;100517.71;;;14.21;30.54
20228;BME280;12195;55.790;37.572;2023-05-02T09:52:19;100506.95;;;14.24;30.72
20228;BME280;12195;55.790;37.572;2023-05-02T09:54:55;100499.36;;;14.33;30.75
20228;BME280;12195;55.790;37.572;2023-05-02T09:57:40;100492.09;;;14.37;29.83
20228;BME280;12195;55.790;37.572;2023-05-02T10:00:13;100488.34;;;14.41;29.76
20228;BME280;12195;55.790;37.572;2023-05-02T10:02:48;100493.28;;;14.47;30.27
20228;BME280;12195;55.790;37.572;2023-05-02T10:05:21;100491.76;;;14.43;29.12
20228;BME280;12195;55.790;37.572;2023-05-02T10:07:54;100487.50;;;14.40;29.36
20228;BME280;12195;55.790;37.572;2023-05-02T10:10:27;100492.30;;;14.34;29.81
20228;BME280;12195;55.790;37.572;2023-05-02T10:13:00;100485.98;;;14.36;29.63
20228;BME280;12195;55.790;37.572;2023-05-02T10:15:33;100499.44;;;14.32;29.54
20228;BME280;12195;55.790;37.572;2023-05-02T10:18:11;100491.59;;;14.46;30.58
20228;BME280;12195;55.790;37.572;2023-05-02T10:20:47;100487.09;;;14.32;30.74
20228;BME280;12195;55.790;37.572;2023-05-02T10:23:21;100486.23;;;14.32;29.78
20228;BME280;12195;55.790;37.572;2023-05-02T10:25:58;100484.00;;;14.40;30.36
20228;BME280;12195;55.790;37.572;2023-05-02T10:28:30;100478.17;;;14.49;30.50
20228;BME280;12195;55.790;37.572;2023-05-02T10:31:04;100467.27;;;14.55;31.27
20228;BME280;12195;55.790;37.572;2023-05-02T10:33:38;100461.42;;;14.64;31.25
20228;BME280;12195;55.790;37.572;2023-05-02T10:36:11;100468.72;;;14.74;30.43
20228;BME280;12195;55.790;37.572;2023-05-02T10:38:44;100463.91;;;14.81;29.35
20228;BME280;12195;55.790;37.572;2023-05-02T10:41:19;100462.78;;;14.85;29.21
20228;BME280;12195;55.790;37.572;2023-05-02T10:43:53;100452.12;;;14.86;29.53
20228;BME280;12195;55.790;37.572;2023-05-02T10:46:38;100462.78;;;14.85;29.52
20228;BME280;12195;55.790;37.572;2023-05-02T10:49:12;100458.45;;;14.84;28.71
20228;BME280;12195;55.790;37.572;2023-05-02T10:51:44;100466.38;;;14.84;29.19
20228;BME280;12195;55.790;37.572;2023-05-02T10:54:24;100458.36;;;14.85;29.68
20228;BME280;12195;55.790;37.572;2023-05-02T10:59:37;100460.63;;;14.91;28.60
20228;BME280;12195;55.790;37.572;2023-05-02T11:05:04;100458.94;;;15.04;30.68
20228;BME280;12195;55.790;37.572;2023-05-02T11:07:49;100454.03;;;14.98;29.68
20228;BME280;12195;55.790;37.572;2023-05-02T11:10:23;100446.09;;;14.98;29.19
20228;BME280;12195;55.790;37.572;2023-05-02T11:12:57;100448.35;;;15.04;28.77
20228;BME280;12195;55.790;37.572;2023-05-02T11:18:11;100441.27;;;15.19;30.57
20228;BME280;12195;55.790;37.572;2023-05-02T11:20:44;100443.27;;;15.15;28.37
20228;BME280;12195;55.790;37.572;2023-05-02T11:23:19;100439.41;;;15.49;28.21
20228;BME280;12195;55.790;37.572;2023-05-02T11:25:57;100434.88;;;16.18;27.51
20228;BME280;12195;55.790;37.572;2023-05-02T11:34:03;100416.48;;;19.39;23.27
20228;BME280;12195;55.790;37.572;2023-05-02T11:36:36;100416.98;;;19.33;23.45
20228;BME280;12195;55.790;37.572;2023-05-02T11:39:17;100413.03;;;19.04;25.17
20228;BME280;12195;55.790;37.572;2023-05-02T11:41:43;100413.47;;;18.65;24.88
20228;BME280;12195;55.790;37.572;2023-05-02T11:44:17;100408.12;;;18.31;25.02
20228;BME280;12195;55.790;37.572;2023-05-02T11:46:49;100403.55;;;18.09;25.48
20228;BME280;12195;55.790;37.572;2023-05-02T11:49:22;100406.97;;;18.35;27.27
20228;BME280;12195;55.790;37.572;2023-05-02T11:51:54;100405.63;;;18.86;25.98
20228;BME280;12195;55.790;37.572;2023-05-02T11:54:26;100397.37;;;19.88;23.44
20228;BME280;12195;55.790;37.572;2023-05-02T11:57:00;100398.02;;;21.65;22.37
20228;BME280;12195;55.790;37.572;2023-05-02T11:59:49;100391.99;;;23.42;19.30
20228;BME280;12195;55.790;37.572;2023-05-02T12:02:42;100387.66;;;24.99;18.58
20228;BME280;12195;55.790;37.572;2023-05-02T12:05:21;100382.81;;;26.83;16.89
20228;BME280;12195;55.790;37.572;2023-05-02T12:07:48;100377.23;;;28.47;15.29
20228;BME280;12195;55.790;37.572;2023-05-02T12:10:21;100375.82;;;29.90;14.23
20228;BME280;12195;55.790;37.572;2023-05-02T12:13:02;100364.69;;;31.45;12.85
20228;BME280;12195;55.790;37.572;2023-05-02T12:15:29;100360.86;;;32.92;12.05
20228;BME280;12195;55.790;37.572;2023-05-02T12:18:02;100349.08;;;34.74;11.04
20228;BME280;12195;55.790;37.572;2023-05-02T12:20:35;100359.83;;;35.90;10.22
20228;BME280;12195;55.790;37.572;2023-05-02T12:23:08;100349.22;;;36.64;9.33
20228;BME280;12195;55.790;37.572;2023-05-02T12:25:42;100343.98;;;37.44;8.72
20228;BME280;12195;55.790;37.572;2023-05-02T12:28:19;100339.38;;;38.12;8.63
20228;BME280;12195;55.790;37.572;2023-05-02T12:30:52;100339.03;;;38.53;8.51
20228;BME280;12195;55.790;37.572;2023-05-02T12:33:25;100334.53;;;39.18;8.18
20228;BME280;12195;55.790;37.572;2023-05-02T12:36:04;100327.48;;;39.65;7.37
20228;BME280;12195;55.790;37.572;2023-05-02T12:38:32;100328.70;;;40.22;7.55
20228;BME280;12195;55.790;37.572;2023-05-02T12:41:05;100334.51;;;40.88;6.95
20228;BME280;12195;55.790;37.572;2023-05-02T12:43:47;100333.22;;;41.01;6.74
20228;BME280;12195;55.790;37.572;2023-05-02T12:46:21;100320.01;;;41.55;6.51
20228;BME280;12195;55.790;37.572;2023-05-02T12:49:04;100314.06;;;42.03;6.65
20228;BME280;12195;55.790;37.572;2023-05-02T12:51:38;100312.46;;;42.27;6.08
20228;BME280;12195;55.790;37.572;2023-05-02T12:54:19;100291.41;;;42.96;5.77
20228;BME280;12195;55.790;37.572;2023-05-02T12:56:47;100291.41;;;42.96;5.77
20228;BME280;12195;55.790;37.572;2023-05-02T12:59:26;100300.86;;;42.75;6.05
20228;BME280;12195;55.790;37.572;2023-05-02T13:01:59;100312.70;;;45.60;8.15
20228;BME280;12195;55.790;37.572;2023-05-02T13:04:38;100300.19;;;43.28;6.21
20228;BME280;12195;55.790;37.572;2023-05-02T13:07:12;100297.05;;;43.54;5.67
20228;BME280;12195;55.790;37.572;2023-05-02T13:09:44;100297.53;;;43.66;5.58
20228;BME280;12195;55.790;37.572;2023-05-02T13:12:16;100293.47;;;43.97;5.55
20228;BME280;12195;55.790;37.572;2023-05-02T13:14:48;100295.63;;;44.05;5.39
20228;BME280;12195;55.790;37.572;2023-05-02T13:17:20;100294.83;;;44.38;5.22
20228;BME280;12195;55.790;37.572;2023-05-02T13:19:53;100290.81;;;44.59;5.08
20228;BME280;12195;55.790;37.572;2023-05-02T13:22:26;100284.86;;;44.71;5.05
20228;BME280;12195;55.790;37.572;2023-05-02T13:24:58;100286.62;;;47.48;4.57
20228;BME280;12195;55.790;37.572;2023-05-02T13:27:31;100273.63;;;45.33;4.87
20228;BME280;12195;55.790;37.572;2023-05-02T13:30:05;100264.88;;;45.21;4.92
20228;BME280;12195;55.790;37.572;2023-05-02T13:32:38;100260.92;;;45.04;4.80
20228;BME280;12195;55.790;37.572;2023-05-02T13:35:11;100259.86;;;45.00;5.08
20228;BME280;12195;55.790;37.572;2023-05-02T13:37:45;100262.48;;;44.86;4.89
20228;BME280;12195;55.790;37.572;2023-05-02T13:40:17;100261.69;;;44.57;4.90
20228;BME280;12195;55.790;37.572;2023-05-02T13:42:50;100265.33;;;44.52;5.05
20228;BME280;12195;55.790;37.572;2023-05-02T13:45:23;100253.45;;;44.13;5.08
20228;BME280;12195;55.790;37.572;2023-05-02T13:47:55;100262.34;;;43.72;5.12
20228;BME280;12195;55.790;37.572;2023-05-02T13:50:28;100254.83;;;43.77;4.94
20228;BME280;12195;55.790;37.572;2023-05-02T13:53:00;100248.81;;;43.07;5.43